Time;durP1;ratioP1;P1;durP2;ratioP2;P2;SDS_P1;SDS_P2;PMS_P1;PMS_P2;Temp;Humidity;BMP_temperature;BMP_pressure;BME280_temperature;BME280_humidity;BME280_pressure;Samples;Min_cycle;Max_cycle;Signal;HPM_P1;HPM_P2
2023/12/05 00:01:18;;;;;;;34.57;20.73;;;4.10;99.90;;;;;;10083706;29;20249;-81
2023/12/05 00:06:21;;;;;;;28.83;16.70;;;4.40;99.90;;;;;;10083731;29;20651;-81
2023/12/05 00:11:23;;;;;;;21.83;13.70;;;3.90;99.90;;;;;;10084387;29;20235;-81
2023/12/05 00:16:27;;;;;;;38.23;24.43;;;4.10;99.90;;;;;;10075387;29;20278;-81
2023/12/05 00:21:29;;;;;;;37.97;20.77;;;4.00;99.90;;;;;;10075036;29;20239;-81
2023/12/05 00:26:32;;;;;;;27.53;15.53;;;4.00;99.90;;;;;;10061032;29;20728;-81
2023/12/05 00:31:35;;;;;;;33.33;17.67;;;3.90;99.90;;;;;;10068681;29;20236;-81
2023/12/05 00:36:37;;;;;;;35.93;20.97;;;3.80;99.90;;;;;;10070028;29;20230;-81
2023/12/05 00:41:40;;;;;;;34.70;20.37;;;4.00;99.90;;;;;;10069269;29;20982;-81
2023/12/05 00:46:43;;;;;;;37.60;21.47;;;3.50;99.90;;;;;;10068186;29;20320;-81
2023/12/05 00:51:45;;;;;;;32.77;18.60;;;3.30;99.90;;;;;;10065597;29;20321;-81
2023/12/05 00:56:48;;;;;;;32.80;19.83;;;3.20;99.90;;;;;;10073142;29;20232;-81
2023/12/05 01:01:50;;;;;;;30.93;16.73;;;3.40;99.90;;;;;;10084095;29;20335;-81
2023/12/05 01:06:53;;;;;;;32.37;20.87;;;3.50;99.90;;;;;;10083516;29;20370;-81
2023/12/05 01:11:56;;;;;;;34.80;21.23;;;3.10;99.90;;;;;;10070614;29;20285;-81
2023/12/05 01:16:58;;;;;;;28.43;17.10;;;2.90;99.90;;;;;;10066599;29;20353;-81
2023/12/05 01:22:03;;;;;;;36.07;20.33;;;2.70;99.90;;;;;;10070867;29;20281;-80
2023/12/05 01:27:05;;;;;;;35.40;21.80;;;2.20;99.90;;;;;;10069389;29;20365;-81
2023/12/05 01:32:08;;;;;;;30.07;18.97;;;2.20;99.90;;;;;;10066244;29;20229;-81
2023/12/05 01:37:10;;;;;;;38.43;23.50;;;2.00;99.90;;;;;;10064586;29;20232;-81
2023/12/05 01:42:12;;;;;;;35.43;22.30;;;1.80;99.90;;;;;;10068820;29;20230;-81
2023/12/05 01:47:16;;;;;;;33.30;19.03;;;2.20;99.90;;;;;;10067453;29;20307;-81
2023/12/05 01:52:19;;;;;;;39.23;22.10;;;2.30;99.90;;;;;;10070690;29;20266;-81
2023/12/05 01:57:24;;;;;;;38.30;23.20;;;1.70;99.90;;;;;;10069615;29;20306;-81
2023/12/05 02:02:27;;;;;;;40.50;24.73;;;2.30;99.90;;;;;;10069619;29;20691;-81
2023/12/05 02:07:30;;;;;;;32.53;18.80;;;1.80;99.90;;;;;;10064195;29;20378;-81
2023/12/05 02:12:32;;;;;;;30.33;17.87;;;2.50;99.90;;;;;;10065547;29;20226;-81
2023/12/05 02:17:58;;;;;;;38.43;25.60;;;1.80;99.90;;;;;;10067205;29;20969;-81
2023/12/05 02:23:01;;;;;;;33.03;19.63;;;1.50;99.90;;;;;;10060586;29;20305;-81
2023/12/05 02:28:04;;;;;;;27.43;18.13;;;1.00;99.90;;;;;;10064987;29;20319;-81
2023/12/05 02:33:06;;;;;;;39.47;24.43;;;1.10;99.90;;;;;;10069086;29;20237;-81
2023/12/05 02:38:18;;;;;;;22.70;12.40;;;1.10;99.90;;;;;;10065879;29;20376;-81
2023/12/05 02:43:36;;;;;;;43.73;22.83;;;1.90;99.90;;;;;;10065146;29;20266;-81
2023/12/05 02:48:39;;;;;;;33.57;17.57;;;1.70;99.90;;;;;;10067221;29;20685;-81
2023/12/05 02:53:42;;;;;;;39.87;20.23;;;1.90;99.90;;;;;;10063587;29;20672;-81
2023/12/05 02:58:44;;;;;;;33.93;19.23;;;2.00;99.90;;;;;;10064901;29;20365;-81
2023/12/05 03:03:47;;;;;;;35.77;20.43;;;1.70;99.90;;;;;;10066544;29;20384;-81
2023/12/05 03:08:49;;;;;;;37.57;22.30;;;1.50;99.90;;;;;;10063963;29;20308;-81
2023/12/05 03:13:52;;;;;;;34.93;21.97;;;1.60;99.90;;;;;;10062180;29;20310;-81
2023/12/05 03:18:55;;;;;;;31.00;18.83;;;1.90;99.90;;;;;;10068188;29;20625;-82
2023/12/05 03:23:59;;;;;;;34.00;21.50;;;2.30;99.90;;;;;;10067341;29;20384;-81
2023/12/05 03:29:01;;;;;;;31.60;18.57;;;2.50;99.90;;;;;;10068078;29;20330;-81
2023/12/05 03:34:04;;;;;;;33.93;18.17;;;2.50;99.90;;;;;;10063816;29;20278;-81
2023/12/05 03:39:06;;;;;;;39.47;21.70;;;2.70;99.90;;;;;;10067574;29;20623;-81
2023/12/05 03:44:09;;;;;;;33.47;18.00;;;2.50;99.90;;;;;;10064612;29;20314;-81
2023/12/05 03:49:12;;;;;;;41.40;20.67;;;2.50;99.90;;;;;;10065325;29;20232;-81
2023/12/05 03:54:15;;;;;;;37.27;20.80;;;1.70;99.90;;;;;;10063049;29;20241;-81
2023/12/05 03:59:18;;;;;;;46.60;27.03;;;2.10;99.90;;;;;;10063054;29;20291;-81
2023/12/05 04:04:20;;;;;;;42.30;23.13;;;1.90;99.90;;;;;;10064292;29;20374;-81
2023/12/05 04:09:23;;;;;;;31.93;17.77;;;1.60;99.90;;;;;;10069355;29;20278;-81
2023/12/05 04:14:26;;;;;;;25.20;13.70;;;1.90;99.90;;;;;;10075200;29;20289;-81
2023/12/05 04:19:28;;;;;;;43.27;24.40;;;2.20;99.90;;;;;;10072915;29;20239;-81
2023/12/05 04:24:31;;;;;;;44.10;25.47;;;2.30;99.90;;;;;;10069694;29;20690;-81
2023/12/05 04:29:33;;;;;;;39.93;23.13;;;2.40;99.90;;;;;;10071156;29;20260;-81
2023/12/05 04:34:36;;;;;;;33.47;21.17;;;2.30;99.90;;;;;;10067790;29;20274;-81
2023/12/05 04:39:39;;;;;;;28.60;17.00;;;2.10;99.90;;;;;;10067760;29;20278;-81
2023/12/05 04:44:42;;;;;;;46.93;26.47;;;2.80;99.90;;;;;;10068893;29;20249;-81
2023/12/05 04:49:44;;;;;;;35.03;19.20;;;3.10;99.90;;;;;;10067083;29;20367;-81
2023/12/05 04:54:47;;;;;;;25.73;16.03;;;3.30;99.90;;;;;;10069520;29;20292;-80
2023/12/05 04:59:49;;;;;;;35.10;22.20;;;3.70;99.90;;;;;;10064330;29;20242;-81
2023/12/05 05:04:52;;;;;;;31.77;18.00;;;3.80;99.90;;;;;;10071219;29;20314;-81
2023/12/05 05:09:54;;;;;;;36.33;19.23;;;3.30;99.90;;;;;;10066154;29;20315;-81
2023/12/05 05:14:57;;;;;;;48.73;29.17;;;3.40;99.90;;;;;;10067616;29;20233;-81
2023/12/05 05:19:59;;;;;;;40.57;24.07;;;3.20;99.90;;;;;;10069039;29;20314;-81
2023/12/05 05:25:02;;;;;;;38.53;22.40;;;2.50;99.90;;;;;;10067596;29;20361;-81
2023/12/05 05:30:05;;;;;;;44.93;26.20;;;2.20;99.90;;;;;;10068921;29;20288;-81
2023/12/05 05:35:08;;;;;;;45.47;27.20;;;2.00;99.90;;;;;;10068854;29;20242;-81
2023/12/05 05:40:11;;;;;;;50.90;29.07;;;1.80;99.90;;;;;;10086070;29;20675;-82
2023/12/05 05:45:13;;;;;;;30.47;17.00;;;2.00;99.90;;;;;;10086764;29;20707;-81
2023/12/05 05:50:16;;;;;;;34.67;19.27;;;1.80;99.90;;;;;;10060719;29;20229;-79
2023/12/05 05:55:26;;;;;;;49.90;25.90;;;2.10;99.90;;;;;;10077112;29;20229;-78
2023/12/05 06:00:28;;;;;;;39.07;21.23;;;3.50;99.90;;;;;;10057177;29;20241;-78
2023/12/05 06:05:31;;;;;;;40.57;22.20;;;3.10;99.90;;;;;;10069155;29;20245;-78
2023/12/05 06:10:35;;;;;;;41.70;22.40;;;2.50;99.90;;;;;;10088644;29;20237;-78
2023/12/05 06:15:37;;;;;;;37.40;23.30;;;2.70;99.90;;;;;;10086771;29;20230;-78
2023/12/05 06:20:40;;;;;;;45.03;23.37;;;3.20;99.90;;;;;;10060759;29;20297;-78
2023/12/05 06:25:42;;;;;;;48.67;28.77;;;3.00;99.90;;;;;;10057582;29;20264;-78
2023/12/05 06:30:45;;;;;;;41.80;22.93;;;2.50;99.90;;;;;;10073194;29;20694;-78
2023/12/05 06:35:47;;;;;;;34.43;22.20;;;2.50;99.90;;;;;;10060764;29;20237;-78
2023/12/05 06:40:50;;;;;;;53.30;30.43;;;2.20;99.90;;;;;;10089102;29;20656;-78
2023/12/05 06:45:52;;;;;;;44.13;24.70;;;2.00;99.90;;;;;;10101642;29;20718;-78
2023/12/05 06:50:55;;;;;;;42.60;22.80;;;1.60;99.90;;;;;;10105809;29;20225;-78
2023/12/05 06:55:58;;;;;;;45.00;26.70;;;1.60;99.90;;;;;;10115702;29;20236;-78
2023/12/05 07:01:00;;;;;;;51.33;29.73;;;1.10;99.90;;;;;;10099263;29;20298;-78
2023/12/05 07:06:04;;;;;;;40.27;20.13;;;1.40;99.90;;;;;;10104563;29;20285;-78
2023/12/05 07:11:07;;;;;;;49.43;26.83;;;1.40;99.90;;;;;;10108785;29;20240;-79
2023/12/05 07:16:11;;;;;;;47.63;22.53;;;1.30;99.90;;;;;;10081272;29;20298;-78
2023/12/05 07:21:13;;;;;;;44.43;22.63;;;1.60;99.90;;;;;;10083088;29;20672;-78
2023/12/05 07:26:16;;;;;;;42.33;22.70;;;1.70;99.90;;;;;;10089629;29;20277;-78
2023/12/05 07:31:20;;;;;;;56.50;32.10;;;1.80;99.90;;;;;;10079117;29;20239;-78
2023/12/05 07:36:23;;;;;;;49.47;28.43;;;1.70;99.90;;;;;;10085688;29;20233;-78
2023/12/05 07:41:25;;;;;;;32.07;20.13;;;1.50;99.90;;;;;;10089373;29;20242;-78
2023/12/05 07:46:28;;;;;;;51.03;29.93;;;2.00;99.90;;;;;;10085887;29;20256;-78
2023/12/05 07:51:31;;;;;;;42.07;23.53;;;1.80;99.90;;;;;;10091150;29;20813;-78
2023/12/05 07:56:33;;;;;;;60.60;31.93;;;1.40;99.90;;;;;;10060221;29;20306;-78
2023/12/05 08:01:36;;;;;;;36.50;20.27;;;1.90;99.90;;;;;;10062878;29;20322;-78
2023/12/05 08:06:38;;;;;;;42.13;24.67;;;2.30;99.90;;;;;;10072707;29;20324;-79
2023/12/05 08:11:41;;;;;;;33.93;18.23;;;2.70;99.90;;;;;;10083214;29;20691;-79
2023/12/05 08:16:44;;;;;;;58.90;34.23;;;3.30;99.90;;;;;;10057268;29;20274;-78
2023/12/05 08:21:46;;;;;;;48.37;27.17;;;3.20;99.90;;;;;;10058627;29;20245;-79
2023/12/05 08:26:49;;;;;;;49.33;27.80;;;2.30;99.90;;;;;;10057450;29;20301;-79
2023/12/05 08:31:52;;;;;;;49.93;26.40;;;3.20;99.90;;;;;;10080246;29;20269;-79
2023/12/05 08:36:55;;;;;;;28.17;16.60;;;3.10;99.90;;;;;;10095559;29;20253;-79
2023/12/05 08:41:59;;;;;;;36.80;23.43;;;3.40;99.90;;;;;;10093296;29;20265;-79
2023/12/05 08:47:02;;;;;;;39.63;24.13;;;3.00;99.90;;;;;;10096754;29;20324;-78
2023/12/05 08:52:05;;;;;;;30.87;15.57;;;3.50;99.90;;;;;;10109252;29;20234;-79
2023/12/05 08:57:08;;;;;;;41.17;24.70;;;3.60;99.90;;;;;;10107387;29;20256;-79
2023/12/05 09:02:10;;;;;;;35.40;18.97;;;3.70;99.90;;;;;;10110303;29;20694;-79
2023/12/05 09:07:13;;;;;;;48.30;30.37;;;3.20;99.90;;;;;;10107976;29;20260;-79
2023/12/05 09:12:15;;;;;;;47.00;26.93;;;3.00;99.90;;;;;;10104048;29;20320;-79
2023/12/05 09:17:18;;;;;;;33.57;20.17;;;2.30;99.90;;;;;;10110815;29;20854;-79
2023/12/05 09:22:21;;;;;;;50.57;28.23;;;2.90;99.90;;;;;;10093463;29;20277;-79
2023/12/05 09:27:24;;;;;;;30.43;17.63;;;3.30;99.90;;;;;;10106800;29;20269;-79
2023/12/05 09:32:26;;;;;;;33.93;19.73;;;3.30;99.90;;;;;;10081552;29;20807;-79
2023/12/05 09:37:29;;;;;;;33.80;18.73;;;3.60;99.90;;;;;;10100063;29;20239;-79
2023/12/05 09:42:36;;;;;;;37.73;19.07;;;3.60;99.90;;;;;;10106544;29;20312;-78
2023/12/05 09:47:41;;;;;;;54.97;36.10;;;3.80;99.90;;;;;;10126818;29;20304;-79
2023/12/05 09:52:44;;;;;;;40.87;23.37;;;4.20;99.90;;;;;;10094805;29;20232;-79
2023/12/05 09:57:48;;;;;;;43.57;25.63;;;4.50;99.90;;;;;;10111295;29;20242;-79
2023/12/05 10:02:54;;;;;;;76.33;44.90;;;4.30;99.90;;;;;;10107946;29;20232;-79
2023/12/05 10:07:56;;;;;;;42.77;25.47;;;3.60;99.90;;;;;;10092906;29;20670;-79
2023/12/05 10:13:01;;;;;;;34.77;22.30;;;4.20;99.90;;;;;;10105046;29;20917;-79
2023/12/05 10:18:04;;;;;;;47.03;24.43;;;3.90;99.90;;;;;;10105879;29;20289;-79
2023/12/05 10:23:07;;;;;;;45.93;26.73;;;3.80;99.90;;;;;;10111398;29;20229;-79
2023/12/05 10:28:10;;;;;;;48.40;26.97;;;3.50;99.90;;;;;;10097810;29;20303;-79
2023/12/05 10:33:13;;;;;;;41.97;23.10;;;4.00;99.90;;;;;;10107971;29;20239;-79
2023/12/05 10:38:18;;;;;;;59.47;35.93;;;4.80;99.90;;;;;;10128880;29;20244;-79
2023/12/05 10:43:22;;;;;;;84.97;47.13;;;4.20;99.90;;;;;;10128401;29;20242;-79
2023/12/05 10:48:25;;;;;;;40.20;21.37;;;4.30;99.90;;;;;;10123741;29;20320;-79
2023/12/05 10:53:28;;;;;;;49.33;27.13;;;4.40;99.90;;;;;;10085150;29;20316;-79
2023/12/05 10:58:31;;;;;;;49.63;29.63;;;4.50;99.90;;;;;;10087577;29;20791;-79
2023/12/05 11:03:34;;;;;;;25.03;14.77;;;5.00;99.90;;;;;;10088668;29;20666;-79
2023/12/05 11:08:37;;;;;;;25.40;16.63;;;5.00;99.90;;;;;;10089932;29;20715;-78
2023/12/05 11:13:40;;;;;;;40.13;20.60;;;5.40;99.90;;;;;;10089126;29;20613;-79
2023/12/05 11:18:45;;;;;;;30.20;14.30;;;5.00;99.90;;;;;;10092900;29;20630;-79
2023/12/05 11:24:02;;;;;;;64.67;38.27;;;4.90;99.90;;;;;;10094046;29;20704;-79
2023/12/05 11:29:29;;;;;;;34.10;18.43;;;4.40;99.90;;;;;;10091040;29;20757;-79
2023/12/05 11:35:16;;;;;;;55.40;32.27;;;4.70;99.90;;;;;;10063588;29;20295;-80
2023/12/05 11:40:19;;;;;;;56.10;31.93;;;4.70;99.90;;;;;;10055528;29;20285;-79
2023/12/05 11:45:22;;;;;;;45.43;26.37;;;4.40;99.90;;;;;;10061733;29;20245;-78
2023/12/05 11:50:25;;;;;;;31.47;20.73;;;4.50;99.90;;;;;;10080830;29;20715;-79
2023/12/05 11:55:30;;;;;;;58.53;34.53;;;4.50;99.90;;;;;;10100454;29;20232;-79
2023/12/05 12:00:33;;;;;;;52.47;29.40;;;4.20;99.90;;;;;;10099875;29;20279;-79
2023/12/05 12:05:38;;;;;;;24.57;13.93;;;3.90;99.90;;;;;;10098797;29;20264;-79
2023/12/05 12:10:41;;;;;;;39.67;20.90;;;4.00;99.90;;;;;;10083050;29;20232;-79
2023/12/05 12:15:43;;;;;;;41.37;20.47;;;4.10;99.90;;;;;;10062509;29;20236;-79
2023/12/05 12:20:51;;;;;;;62.73;36.90;;;4.70;99.90;;;;;;10085644;29;20261;-79
2023/12/05 12:25:57;;;;;;;63.70;36.43;;;4.40;99.90;;;;;;10077719;29;20259;-79
2023/12/05 12:31:00;;;;;;;82.97;50.87;;;3.80;99.90;;;;;;10086924;29;20700;-79
2023/12/05 12:36:04;;;;;;;36.80;19.00;;;4.20;99.90;;;;;;10093884;29;20280;-79
2023/12/05 12:41:09;;;;;;;74.47;36.93;;;4.90;99.90;;;;;;10093609;29;20307;-79
2023/12/05 12:46:14;;;;;;;80.20;43.73;;;4.90;99.90;;;;;;10095093;29;20320;-79
2023/12/05 12:51:17;;;;;;;52.00;24.97;;;4.40;99.90;;;;;;10090275;29;20231;-79
2023/12/05 12:56:20;;;;;;;74.47;39.27;;;4.20;99.90;;;;;;10058569;29;20242;-79
2023/12/05 13:01:22;;;;;;;72.70;34.13;;;3.90;99.90;;;;;;10094216;29;20251;-79
2023/12/05 13:06:45;;;;;;;69.57;39.03;;;3.60;99.90;;;;;;10094139;29;20267;-79
2023/12/05 13:11:48;;;;;;;66.90;35.50;;;3.40;99.90;;;;;;10093903;29;20968;-79
2023/12/05 13:16:51;;;;;;;65.70;35.63;;;3.90;99.90;;;;;;10093484;29;20326;-79
2023/12/05 13:21:53;;;;;;;69.33;38.60;;;4.40;99.90;;;;;;10093497;29;20246;-79
2023/12/05 13:26:58;;;;;;;77.03;43.10;;;4.20;99.90;;;;;;10092794;29;20259;-79
2023/12/05 13:32:01;;;;;;;85.50;51.47;;;3.90;99.90;;;;;;10093200;29;20245;-79
2023/12/05 13:37:03;;;;;;;71.87;39.23;;;3.60;99.90;;;;;;10093095;29;20238;-79
2023/12/05 13:42:06;;;;;;;57.03;28.30;;;3.20;99.90;;;;;;10092621;29;20298;-79
2023/12/05 13:47:09;;;;;;;57.93;33.27;;;3.60;99.90;;;;;;10091307;29;20623;-79
2023/12/05 13:52:12;;;;;;;62.47;34.37;;;3.60;99.90;;;;;;10092541;29;20702;-79
2023/12/05 13:57:15;;;;;;;61.63;36.10;;;3.80;99.90;;;;;;10092614;29;20248;-79
2023/12/05 14:02:17;;;;;;;66.83;37.63;;;3.20;99.90;;;;;;10091094;29;20252;-79
2023/12/05 14:07:20;;;;;;;75.40;40.87;;;2.90;99.90;;;;;;10092007;29;20666;-79
2023/12/05 14:12:23;;;;;;;58.57;32.27;;;3.10;99.90;;;;;;10091667;29;20235;-79
2023/12/05 14:17:25;;;;;;;69.83;39.73;;;3.70;99.90;;;;;;10074863;29;20673;-79
2023/12/05 14:22:28;;;;;;;65.40;38.50;;;3.70;99.90;;;;;;10091555;29;20345;-79
2023/12/05 14:27:30;;;;;;;73.97;41.00;;;3.60;99.90;;;;;;10073832;29;20753;-79
2023/12/05 14:32:33;;;;;;;44.33;25.80;;;3.40;99.90;;;;;;10090636;29;20245;-79
2023/12/05 14:37:35;;;;;;;54.90;28.40;;;3.50;99.90;;;;;;10075579;29;20894;-79
2023/12/05 14:42:38;;;;;;;62.23;37.43;;;3.30;99.90;;;;;;10073682;29;20245;-79
2023/12/05 14:47:40;;;;;;;66.83;41.50;;;3.10;99.90;;;;;;10087392;29;20257;-79
2023/12/05 14:52:43;;;;;;;32.03;16.43;;;3.10;99.90;;;;;;10052236;29;20944;-79
2023/12/05 14:57:45;;;;;;;59.10;33.67;;;1.00;99.90;;;;;;10103666;29;20284;-79
2023/12/05 15:02:48;;;;;;;55.77;30.57;;;2.10;99.90;;;;;;10088825;29;20676;-79
2023/12/05 15:07:50;;;;;;;57.73;29.80;;;2.60;99.90;;;;;;10072059;29;20272;-79
2023/12/05 15:12:56;;;;;;;57.83;32.07;;;2.50;99.90;;;;;;10075600;29;20236;-79
2023/12/05 15:17:58;;;;;;;49.37;27.87;;;2.60;99.90;;;;;;10084552;29;20294;-79
2023/12/05 15:23:02;;;;;;;52.53;29.67;;;2.70;99.90;;;;;;10089868;29;20269;-79
2023/12/05 15:28:05;;;;;;;68.73;40.60;;;3.00;99.90;;;;;;10088602;29;20272;-79
2023/12/05 15:33:08;;;;;;;38.80;19.43;;;2.70;99.90;;;;;;10086744;29;20288;-79
2023/12/05 15:38:11;;;;;;;44.63;21.67;;;2.60;99.90;;;;;;10080989;29;20236;-77
2023/12/05 15:43:14;;;;;;;44.37;25.30;;;3.10;99.90;;;;;;10087497;29;20302;-78
2023/12/05 15:48:17;;;;;;;69.10;43.70;;;4.90;99.90;;;;;;10089167;29;20315;-78
2023/12/05 15:53:40;;;;;;;65.93;34.70;;;4.20;99.90;;;;;;10089944;29;20287;-79
2023/12/05 15:58:42;;;;;;;60.53;33.77;;;3.60;99.90;;;;;;10088131;29;20306;-78
2023/12/05 16:03:46;;;;;;;52.70;27.80;;;4.30;99.90;;;;;;10085929;29;20247;-78
2023/12/05 16:08:49;;;;;;;57.77;34.23;;;3.90;99.90;;;;;;10081333;29;20382;-78
2023/12/05 16:13:52;;;;;;;60.60;30.93;;;3.60;99.90;;;;;;10090824;29;20242;-78
2023/12/05 16:18:54;;;;;;;68.50;38.67;;;3.60;99.90;;;;;;10072087;29;20242;-78
2023/12/05 16:23:57;;;;;;;61.30;36.97;;;2.90;99.90;;;;;;10096713;29;20696;-78
2023/12/05 16:28:59;;;;;;;68.57;38.57;;;3.00;99.90;;;;;;10095161;29;20729;-78
2023/12/05 16:34:02;;;;;;;69.00;38.63;;;2.90;99.90;;;;;;10087504;29;20741;-78
2023/12/05 16:39:05;;;;;;;63.07;36.30;;;2.90;99.90;;;;;;10105696;29;20286;-78
2023/12/05 16:44:07;;;;;;;50.73;26.30;;;3.20;99.90;;;;;;10108406;29;20305;-78
2023/12/05 16:49:12;;;;;;;43.90;27.77;;;2.60;99.90;;;;;;10107472;29;20879;-78
2023/12/05 16:54:15;;;;;;;46.43;24.13;;;2.60;99.90;;;;;;10116356;29;20870;-79
2023/12/05 16:59:17;;;;;;;50.13;29.43;;;2.60;99.90;;;;;;10111222;29;20640;-78
2023/12/05 17:04:32;;;;;;;57.57;32.47;;;2.60;99.90;;;;;;10107129;29;20271;-79
2023/12/05 17:09:35;;;;;;;64.63;40.43;;;2.60;99.90;;;;;;10112260;29;20257;-78
2023/12/05 17:14:38;;;;;;;71.27;45.10;;;2.40;99.90;;;;;;10108376;29;20296;-78
2023/12/05 17:19:41;;;;;;;67.73;41.80;;;2.50;99.90;;;;;;10100974;29;20282;-78
2023/12/05 17:24:43;;;;;;;41.50;23.67;;;2.80;99.90;;;;;;10106815;29;20688;-78
2023/12/05 17:29:49;;;;;;;63.93;40.13;;;3.10;99.90;;;;;;10095669;29;20271;-78
2023/12/05 17:34:53;;;;;;;64.83;39.93;;;2.60;99.90;;;;;;10106492;29;20229;-78
2023/12/05 17:39:57;;;;;;;55.53;32.43;;;2.30;99.90;;;;;;10110129;29;20237;-78
2023/12/05 17:44:59;;;;;;;60.07;34.40;;;2.10;99.90;;;;;;10114496;29;20290;-78
2023/12/05 17:50:02;;;;;;;62.17;32.40;;;2.20;99.90;;;;;;10096802;29;20269;-77
2023/12/05 17:55:05;;;;;;;57.93;34.43;;;2.30;99.90;;;;;;10091526;29;20239;-78
2023/12/05 18:00:08;;;;;;;64.03;36.33;;;2.40;99.90;;;;;;10091839;29;20246;-78
2023/12/05 18:05:15;;;;;;;64.07;38.10;;;3.00;99.90;;;;;;10090977;29;20210;-78
2023/12/05 18:10:18;;;;;;;60.77;34.97;;;2.60;99.90;;;;;;10091332;29;20721;-78
2023/12/05 18:15:20;;;;;;;69.43;38.07;;;2.40;99.90;;;;;;10082527;29;20242;-77
2023/12/05 18:20:23;;;;;;;66.03;39.57;;;2.60;99.90;;;;;;10089571;29;20244;-78
2023/12/05 18:25:25;;;;;;;54.27;29.03;;;2.50;99.90;;;;;;10088580;29;20719;-78
2023/12/05 18:30:27;;;;;;;62.90;36.73;;;2.70;99.90;;;;;;10089653;29;20315;-78
2023/12/05 18:35:30;;;;;;;50.10;29.20;;;2.50;99.90;;;;;;10090001;29;20239;-77
2023/12/05 18:40:33;;;;;;;58.13;34.07;;;2.70;99.90;;;;;;10090361;29;20764;-78
2023/12/05 18:45:35;;;;;;;49.57;28.97;;;2.90;99.90;;;;;;10085282;29;20271;-78
2023/12/05 18:50:38;;;;;;;51.87;30.40;;;2.60;99.90;;;;;;9752574;29;10000211;-78
2023/12/05 18:55:40;;;;;;;52.17;29.40;;;2.80;99.90;;;;;;10082035;29;20245;-78
2023/12/05 19:00:43;;;;;;;42.67;24.63;;;2.90;99.90;;;;;;10086147;29;20276;-79
2023/12/05 19:05:46;;;;;;;75.43;43.67;;;2.80;99.90;;;;;;10086378;29;20238;-78
2023/12/05 19:10:49;;;;;;;66.50;40.83;;;2.60;99.90;;;;;;10086601;29;20256;-78
2023/12/05 19:15:51;;;;;;;37.93;23.73;;;2.10;99.90;;;;;;10085329;29;20644;-79
2023/12/05 19:20:54;;;;;;;62.53;38.57;;;2.50;99.90;;;;;;10076243;29;20240;-78
2023/12/05 19:25:56;;;;;;;104.30;50.97;;;2.70;99.90;;;;;;10074204;29;20270;-78
2023/12/05 19:30:59;;;;;;;51.47;27.20;;;2.60;99.90;;;;;;10067109;29;20310;-78
2023/12/05 19:36:02;;;;;;;83.97;47.00;;;2.60;99.90;;;;;;10077495;29;20238;-78
2023/12/05 19:41:04;;;;;;;66.27;39.17;;;2.80;99.90;;;;;;10071674;29;20243;-78
2023/12/05 19:46:07;;;;;;;56.97;34.93;;;2.80;99.90;;;;;;10084375;29;20652;-78
2023/12/05 19:51:09;;;;;;;65.03;40.77;;;2.90;99.90;;;;;;10089753;29;20285;-78
2023/12/05 19:56:14;;;;;;;81.33;50.33;;;2.40;99.90;;;;;;10090719;29;20298;-78
2023/12/05 20:01:17;;;;;;;52.27;30.77;;;2.40;99.90;;;;;;10092161;29;20239;-78
2023/12/05 20:06:20;;;;;;;63.40;38.97;;;2.30;99.90;;;;;;10091049;29;20246;-78
2023/12/05 20:11:22;;;;;;;76.03;46.73;;;2.30;99.90;;;;;;10093067;29;20254;-78
2023/12/05 20:16:25;;;;;;;66.47;38.47;;;2.10;99.90;;;;;;10082342;29;20286;-78
2023/12/05 20:21:27;;;;;;;43.77;25.93;;;1.60;99.90;;;;;;10081236;29;20269;-78
2023/12/05 20:26:30;;;;;;;57.90;36.40;;;2.10;99.90;;;;;;10086185;29;20339;-78
2023/12/05 20:31:33;;;;;;;82.23;50.77;;;2.10;99.90;;;;;;10082385;29;20669;-78
2023/12/05 20:36:35;;;;;;;81.00;45.83;;;2.20;99.90;;;;;;10086237;29;20229;-78
2023/12/05 20:41:38;;;;;;;56.23;33.57;;;2.00;99.90;;;;;;10086129;29;20283;-78
2023/12/05 20:46:41;;;;;;;62.83;34.13;;;2.30;99.90;;;;;;10089819;29;20240;-78
2023/12/05 20:51:43;;;;;;;75.93;44.90;;;2.70;99.90;;;;;;10089107;29;20258;-79
2023/12/05 20:56:46;;;;;;;74.17;45.47;;;2.50;99.90;;;;;;10078879;29;20684;-78
2023/12/05 21:01:50;;;;;;;67.93;41.43;;;2.20;99.90;;;;;;10091298;29;20309;-79
2023/12/05 21:06:52;;;;;;;68.03;38.60;;;2.60;99.90;;;;;;10085891;29;20241;-77
2023/12/05 21:11:55;;;;;;;64.90;37.60;;;2.60;99.90;;;;;;10071823;29;20268;-78
2023/12/05 21:16:57;;;;;;;49.17;30.10;;;2.80;99.90;;;;;;10089927;29;20300;-78
2023/12/05 21:22:00;;;;;;;57.60;34.60;;;2.80;99.90;;;;;;10090301;29;20310;-78
2023/12/05 21:27:03;;;;;;;59.10;32.70;;;2.80;99.90;;;;;;10088046;29;20272;-78
2023/12/05 21:32:06;;;;;;;59.90;34.20;;;2.80;99.90;;;;;;10080016;29;20285;-81
2023/12/05 21:37:08;;;;;;;37.60;21.13;;;2.50;99.90;;;;;;10071414;29;20233;-77
2023/12/05 21:42:11;;;;;;;73.57;43.83;;;2.90;99.90;;;;;;10087532;29;20235;-77
2023/12/05 21:47:13;;;;;;;50.47;30.23;;;2.60;99.90;;;;;;10101379;29;20252;-78
2023/12/05 21:52:17;;;;;;;80.77;47.20;;;2.60;99.90;;;;;;10107008;29;20314;-78
2023/12/05 21:57:19;;;;;;;66.03;35.93;;;2.20;99.90;;;;;;10109285;29;20241;-78
2023/12/05 22:02:23;;;;;;;66.17;41.60;;;2.20;99.90;;;;;;10097731;29;20245;-78
2023/12/05 22:07:26;;;;;;;71.67;43.10;;;2.00;99.90;;;;;;10101958;29;20634;-78
2023/12/05 22:12:29;;;;;;;73.07;44.77;;;1.90;99.90;;;;;;10099057;29;20258;-78
2023/12/05 22:17:31;;;;;;;65.63;39.00;;;1.80;99.90;;;;;;10089058;29;20246;-77
2023/12/05 22:22:34;;;;;;;50.07;30.40;;;2.00;99.90;;;;;;10090438;29;20873;-77
2023/12/05 22:27:36;;;;;;;61.63;35.07;;;2.20;99.90;;;;;;10090034;29;20277;-77
2023/12/05 22:32:39;;;;;;;64.40;39.13;;;2.10;99.90;;;;;;10089945;29;20259;-77
2023/12/05 22:37:41;;;;;;;37.97;23.20;;;2.10;99.90;;;;;;10089117;29;20241;-78
2023/12/05 22:42:44;;;;;;;75.40;44.60;;;1.90;99.90;;;;;;10086093;29;20616;-78
2023/12/05 22:47:46;;;;;;;62.23;35.33;;;2.10;99.90;;;;;;10089824;29;20244;-77
2023/12/05 22:52:52;;;;;;;51.80;29.53;;;2.90;99.90;;;;;;10085356;29;20310;-77
2023/12/05 22:57:55;;;;;;;61.37;35.23;;;2.80;99.90;;;;;;10076200;29;20242;-78
2023/12/05 23:02:57;;;;;;;70.10;40.20;;;2.50;99.90;;;;;;10070771;29;20249;-78
2023/12/05 23:08:00;;;;;;;49.83;29.97;;;2.30;99.90;;;;;;10089010;29;20304;-78
2023/12/05 23:13:03;;;;;;;72.47;43.00;;;2.20;99.90;;;;;;10087276;29;20258;-77
2023/12/05 23:18:06;;;;;;;73.33;42.50;;;2.60;99.90;;;;;;10080073;29;20241;-78
2023/12/05 23:23:09;;;;;;;74.13;42.53;;;2.90;99.90;;;;;;10085749;29;20241;-78
2023/12/05 23:28:12;;;;;;;69.10;38.90;;;2.50;99.90;;;;;;10091399;29;20715;-78
2023/12/05 23:33:23;;;;;;;54.47;33.10;;;2.80;99.90;;;;;;10080817;29;20269;-78
2023/12/05 23:38:26;;;;;;;43.07;25.93;;;2.50;99.90;;;;;;10088472;29;20242;-78
2023/12/05 23:43:29;;;;;;;71.20;42.50;;;3.20;99.90;;;;;;10088904;29;20277;-78
2023/12/05 23:48:31;;;;;;;42.40;23.60;;;2.60;99.90;;;;;;10084760;29;20674;-78
2023/12/05 23:53:34;;;;;;;61.00;36.10;;;2.50;99.90;;;;;;10082372;29;20285;-77
2023/12/05 23:58:36;;;;;;;56.63;34.27;;;2.50;99.90;;;;;;10080852;29;20303;-78
